Terminal Aerodrome Forecast
Issued by NWS

Home | Current Version | Previous Version | Text Only | Print | Product List | Glossary On
Versions: 1 2 3 4 5 6 7 8 9 10 11 12 13 14
000
FTUS43 KMQT 241100
TAFIWD
TAF
KIWD 241123Z 2412/2512 15012G18KT P6SM -RA OVC030
     FM241600 14012G20KT P6SM -RA OVC020
     FM241800 13013G20KT 5SM -RA OVC020
     FM242100 13011G16KT 3SM -SNRA OVC015
     FM250500 16007KT 6SM -SN OVC008
     FM250700 19006KT 6SM -SN OVC003
      AMD LTD TO CLD VIS AND WIND=

USA.gov is the U.S. government's official web portal to all federal, state and local government web resources and services.